sensor_id;sensor_type;location;lat;lon;timestamp;pressure;altitude;pressure_sealevel;temperature;humidity
31357;BME280;60001;48.404;11.738;2023-06-22T00:01:23;96457.25;;;23.74;64.30
31357;BME280;60001;48.404;11.738;2023-06-22T00:02:55;96451.06;;;23.73;64.56
31357;BME280;60001;48.404;11.738;2023-06-22T00:04:25;96447.16;;;23.83;63.99
31357;BME280;60001;48.404;11.738;2023-06-22T00:05:57;96440.53;;;23.81;63.94
31357;BME280;60001;48.404;11.738;2023-06-22T00:07:29;96433.00;;;23.86;63.79
31357;BME280;60001;48.404;11.738;2023-06-22T00:09:01;96434.63;;;23.66;64.07
31357;BME280;60001;48.404;11.738;2023-06-22T00:10:33;96426.22;;;23.68;64.02
31357;BME280;60001;48.404;11.738;2023-06-22T00:12:06;96425.44;;;23.67;64.10
31357;BME280;60001;48.404;11.738;2023-06-22T00:13:38;96411.03;;;23.63;64.01
31357;BME280;60001;48.404;11.738;2023-06-22T00:15:10;96403.72;;;23.64;64.52
31357;BME280;60001;48.404;11.738;2023-06-22T00:16:41;96401.88;;;23.56;64.51
31357;BME280;60001;48.404;11.738;2023-06-22T00:18:13;96395.72;;;23.55;64.68
31357;BME280;60001;48.404;11.738;2023-06-22T00:19:47;96402.16;;;23.63;64.33
31357;BME280;60001;48.404;11.738;2023-06-22T00:21:23;96397.56;;;23.63;64.36
31357;BME280;60001;48.404;11.738;2023-06-22T00:22:55;96400.72;;;23.65;64.02
31357;BME280;60001;48.404;11.738;2023-06-22T00:24:27;96390.59;;;23.62;63.98
31357;BME280;60001;48.404;11.738;2023-06-22T00:25:59;96382.69;;;23.57;64.68
31357;BME280;60001;48.404;11.738;2023-06-22T00:27:30;96389.66;;;23.58;64.01
31357;BME280;60001;48.404;11.738;2023-06-22T00:29:01;96394.03;;;23.50;64.50
31357;BME280;60001;48.404;11.738;2023-06-22T00:30:34;96393.75;;;23.43;64.79
31357;BME280;60001;48.404;11.738;2023-06-22T00:32:06;96385.13;;;23.50;64.28
31357;BME280;60001;48.404;11.738;2023-06-22T00:33:38;96390.28;;;23.43;64.53
31357;BME280;60001;48.404;11.738;2023-06-22T00:35:10;96379.72;;;23.38;64.39
31357;BME280;60001;48.404;11.738;2023-06-22T00:36:42;96377.56;;;23.31;64.84
31357;BME280;60001;48.404;11.738;2023-06-22T00:38:14;96375.47;;;23.37;64.88
31357;BME280;60001;48.404;11.738;2023-06-22T00:39:47;96367.91;;;23.30;64.84
31357;BME280;60001;48.404;11.738;2023-06-22T00:41:18;96377.47;;;23.40;64.50
31357;BME280;60001;48.404;11.738;2023-06-22T00:42:49;96375.66;;;23.32;64.90
31357;BME280;60001;48.404;11.738;2023-06-22T00:44:21;96368.94;;;23.38;64.48
31357;BME280;60001;48.404;11.738;2023-06-22T00:45:55;96364.44;;;23.42;64.39
31357;BME280;60001;48.404;11.738;2023-06-22T00:47:28;96363.84;;;23.36;64.73
31357;BME280;60001;48.404;11.738;2023-06-22T00:48:59;96367.16;;;23.42;64.63
31357;BME280;60001;48.404;11.738;2023-06-22T00:50:32;96376.53;;;23.23;65.05
31357;BME280;60001;48.404;11.738;2023-06-22T00:52:10;96376.34;;;23.41;64.27
31357;BME280;60001;48.404;11.738;2023-06-22T00:53:44;96378.25;;;23.40;64.33
31357;BME280;60001;48.404;11.738;2023-06-22T00:55:18;96377.91;;;23.42;64.20
31357;BME280;60001;48.404;11.738;2023-06-22T00:56:50;96373.66;;;23.41;64.73
31357;BME280;60001;48.404;11.738;2023-06-22T00:58:22;96379.84;;;23.41;64.34
31357;BME280;60001;48.404;11.738;2023-06-22T00:59:56;96379.22;;;23.23;64.91
31357;BME280;60001;48.404;11.738;2023-06-22T01:01:26;96389.72;;;23.37;64.58
31357;BME280;60001;48.404;11.738;2023-06-22T01:02:58;96383.16;;;23.26;64.72
31357;BME280;60001;48.404;11.738;2023-06-22T01:04:35;96395.16;;;23.29;65.11
31357;BME280;60001;48.404;11.738;2023-06-22T01:06:10;96378.75;;;23.21;64.87
31357;BME280;60001;48.404;11.738;2023-06-22T01:07:59;96376.84;;;23.22;64.99
31357;BME280;60001;48.404;11.738;2023-06-22T01:09:37;96383.88;;;23.14;65.29
31357;BME280;60001;48.404;11.738;2023-06-22T01:11:20;96382.75;;;23.15;65.33
31357;BME280;60001;48.404;11.738;2023-06-22T01:13:01;96379.28;;;23.15;65.35
31357;BME280;60001;48.404;11.738;2023-06-22T01:14:39;96372.84;;;23.07;65.12
31357;BME280;60001;48.404;11.738;2023-06-22T01:16:17;96377.25;;;23.12;65.66
31357;BME280;60001;48.404;11.738;2023-06-22T01:17:53;96382.50;;;23.08;65.42
31357;BME280;60001;48.404;11.738;2023-06-22T01:19:36;96379.78;;;22.96;65.80
31357;BME280;60001;48.404;11.738;2023-06-22T01:21:14;96382.13;;;22.97;66.07
31357;BME280;60001;48.404;11.738;2023-06-22T01:23:03;96385.59;;;22.98;65.52
31357;BME280;60001;48.404;11.738;2023-06-22T01:24:48;96382.38;;;23.05;65.46
31357;BME280;60001;48.404;11.738;2023-06-22T01:26:38;96368.84;;;23.13;65.41
31357;BME280;60001;48.404;11.738;2023-06-22T01:28:23;96361.47;;;23.02;65.49
31357;BME280;60001;48.404;11.738;2023-06-22T01:29:58;96368.25;;;23.08;65.05
31357;BME280;60001;48.404;11.738;2023-06-22T01:31:33;96339.38;;;22.96;65.27
31357;BME280;60001;48.404;11.738;2023-06-22T01:33:07;96364.13;;;23.10;65.37
31357;BME280;60001;48.404;11.738;2023-06-22T01:34:41;96359.72;;;23.06;65.35
31357;BME280;60001;48.404;11.738;2023-06-22T01:36:14;96361.38;;;22.98;65.92
31357;BME280;60001;48.404;11.738;2023-06-22T01:37:49;96364.66;;;23.04;65.33
31357;BME280;60001;48.404;11.738;2023-06-22T01:39:22;96351.78;;;23.09;65.38
31357;BME280;60001;48.404;11.738;2023-06-22T01:40:55;96356.94;;;23.14;65.02
31357;BME280;60001;48.404;11.738;2023-06-22T01:42:27;96357.63;;;23.11;64.97
31357;BME280;60001;48.404;11.738;2023-06-22T01:44:01;96361.28;;;23.07;65.03
31357;BME280;60001;48.404;11.738;2023-06-22T01:45:35;96363.97;;;23.07;65.07
31357;BME280;60001;48.404;11.738;2023-06-22T01:47:07;96360.84;;;23.05;65.23
31357;BME280;60001;48.404;11.738;2023-06-22T01:48:39;96363.19;;;23.06;64.79
31357;BME280;60001;48.404;11.738;2023-06-22T01:50:12;96358.47;;;23.03;65.13
31357;BME280;60001;48.404;11.738;2023-06-22T01:51:44;96355.66;;;23.00;65.33
31357;BME280;60001;48.404;11.738;2023-06-22T01:53:16;96351.03;;;23.00;65.34
31357;BME280;60001;48.404;11.738;2023-06-22T01:54:47;96351.91;;;22.92;65.78
31357;BME280;60001;48.404;11.738;2023-06-22T01:56:19;96360.44;;;22.94;65.75
31357;BME280;60001;48.404;11.738;2023-06-22T01:57:51;96351.88;;;22.71;66.38
31357;BME280;60001;48.404;11.738;2023-06-22T01:59:28;96354.97;;;22.61;66.81
31357;BME280;60001;48.404;11.738;2023-06-22T02:01:09;96355.94;;;22.56;66.82
31357;BME280;60001;48.404;11.738;2023-06-22T02:02:47;96362.53;;;22.67;66.86
31357;BME280;60001;48.404;11.738;2023-06-22T02:04:27;96361.19;;;22.74;66.32
31357;BME280;60001;48.404;11.738;2023-06-22T02:06:06;96350.31;;;22.70;66.61
31357;BME280;60001;48.404;11.738;2023-06-22T02:07:46;96358.19;;;22.75;66.36
31357;BME280;60001;48.404;11.738;2023-06-22T02:09:21;96362.28;;;22.81;66.26
31357;BME280;60001;48.404;11.738;2023-06-22T02:10:57;96357.28;;;22.71;66.65
31357;BME280;60001;48.404;11.738;2023-06-22T02:12:32;96363.88;;;22.74;66.81
31357;BME280;60001;48.404;11.738;2023-06-22T02:14:06;96364.03;;;22.56;67.09
31357;BME280;60001;48.404;11.738;2023-06-22T02:15:39;96373.94;;;22.64;66.92
31357;BME280;60001;48.404;11.738;2023-06-22T02:17:12;96377.47;;;22.56;67.51
31357;BME280;60001;48.404;11.738;2023-06-22T02:18:46;96372.38;;;22.63;67.03
31357;BME280;60001;48.404;11.738;2023-06-22T02:20:17;96371.59;;;22.63;67.23
31357;BME280;60001;48.404;11.738;2023-06-22T02:21:48;96370.13;;;22.65;66.77
31357;BME280;60001;48.404;11.738;2023-06-22T02:23:20;96371.19;;;22.73;67.03
31357;BME280;60001;48.404;11.738;2023-06-22T02:24:52;96376.81;;;22.59;67.07
31357;BME280;60001;48.404;11.738;2023-06-22T02:26:25;96379.47;;;22.68;67.22
31357;BME280;60001;48.404;11.738;2023-06-22T02:27:57;96387.66;;;22.71;66.56
31357;BME280;60001;48.404;11.738;2023-06-22T02:29:29;96385.38;;;22.61;67.26
31357;BME280;60001;48.404;11.738;2023-06-22T02:31:00;96367.47;;;22.36;67.73
31357;BME280;60001;48.404;11.738;2023-06-22T02:32:33;96381.59;;;22.24;68.89
31357;BME280;60001;48.404;11.738;2023-06-22T02:34:05;96379.06;;;22.28;68.49
31357;BME280;60001;48.404;11.738;2023-06-22T02:35:37;96375.72;;;22.31;69.08
31357;BME280;60001;48.404;11.738;2023-06-22T02:37:10;96375.72;;;22.31;68.68
31357;BME280;60001;48.404;11.738;2023-06-22T02:38:43;96364.13;;;22.09;69.18
31357;BME280;60001;48.404;11.738;2023-06-22T02:40:18;96380.25;;;22.09;70.25
31357;BME280;60001;48.404;11.738;2023-06-22T02:41:50;96375.66;;;22.19;69.66
31357;BME280;60001;48.404;11.738;2023-06-22T02:43:22;96376.09;;;22.21;69.82
31357;BME280;60001;48.404;11.738;2023-06-22T02:44:54;96376.75;;;22.17;69.87
31357;BME280;60001;48.404;11.738;2023-06-22T02:46:26;96387.84;;;22.07;70.38
31357;BME280;60001;48.404;11.738;2023-06-22T02:47:59;96374.25;;;22.12;70.16
31357;BME280;60001;48.404;11.738;2023-06-22T02:49:31;96368.03;;;22.21;70.02
31357;BME280;60001;48.404;11.738;2023-06-22T02:51:01;96369.16;;;22.20;70.04
31357;BME280;60001;48.404;11.738;2023-06-22T02:52:33;96360.47;;;22.14;70.13
31357;BME280;60001;48.404;11.738;2023-06-22T02:54:05;96360.84;;;21.95;71.12
31357;BME280;60001;48.404;11.738;2023-06-22T02:55:37;96361.28;;;22.06;70.97
31357;BME280;60001;48.404;11.738;2023-06-22T02:57:10;96352.59;;;22.09;70.08
31357;BME280;60001;48.404;11.738;2023-06-22T02:58:44;96365.38;;;22.03;70.94
31357;BME280;60001;48.404;11.738;2023-06-22T03:00:16;96353.84;;;22.11;70.28
31357;BME280;60001;48.404;11.738;2023-06-22T03:01:48;96354.75;;;22.15;70.20
31357;BME280;60001;48.404;11.738;2023-06-22T03:03:21;96357.31;;;22.12;70.31
31357;BME280;60001;48.404;11.738;2023-06-22T03:04:53;96349.13;;;22.00;71.32
31357;BME280;60001;48.404;11.738;2023-06-22T03:06:25;96348.78;;;22.01;71.00
31357;BME280;60001;48.404;11.738;2023-06-22T03:07:58;96359.03;;;22.16;70.21
31357;BME280;60001;48.404;11.738;2023-06-22T03:09:30;96349.59;;;22.02;70.78
31357;BME280;60001;48.404;11.738;2023-06-22T03:11:01;96358.13;;;22.12;70.43
31357;BME280;60001;48.404;11.738;2023-06-22T03:12:32;96354.16;;;22.10;70.92
31357;BME280;60001;48.404;11.738;2023-06-22T03:14:04;96362.00;;;22.24;70.28
31357;BME280;60001;48.404;11.738;2023-06-22T03:15:36;96353.53;;;22.13;70.30
31357;BME280;60001;48.404;11.738;2023-06-22T03:17:09;96362.19;;;22.19;70.43
31357;BME280;60001;48.404;11.738;2023-06-22T03:18:43;96348.28;;;22.08;70.75
31357;BME280;60001;48.404;11.738;2023-06-22T03:20:15;96359.97;;;22.21;70.74
31357;BME280;60001;48.404;11.738;2023-06-22T03:21:46;96347.31;;;22.21;70.37
31357;BME280;60001;48.404;11.738;2023-06-22T03:23:18;96356.59;;;22.32;70.08
31357;BME280;60001;48.404;11.738;2023-06-22T03:24:50;96349.16;;;22.29;69.88
31357;BME280;60001;48.404;11.738;2023-06-22T03:26:22;96348.59;;;22.15;70.28
31357;BME280;60001;48.404;11.738;2023-06-22T03:27:57;96349.22;;;22.21;70.27
31357;BME280;60001;48.404;11.738;2023-06-22T03:29:28;96355.31;;;22.30;69.93
31357;BME280;60001;48.404;11.738;2023-06-22T03:30:59;96346.47;;;22.29;69.86
31357;BME280;60001;48.404;11.738;2023-06-22T03:32:31;96336.66;;;22.25;69.62
31357;BME280;60001;48.404;11.738;2023-06-22T03:34:03;96345.94;;;22.36;69.80
31357;BME280;60001;48.404;11.738;2023-06-22T03:35:35;96343.59;;;22.34;70.19
31357;BME280;60001;48.404;11.738;2023-06-22T03:37:07;96335.53;;;22.34;69.75
31357;BME280;60001;48.404;11.738;2023-06-22T03:38:38;96339.59;;;22.40;69.52
31357;BME280;60001;48.404;11.738;2023-06-22T03:40:11;96348.59;;;22.44;69.68
31357;BME280;60001;48.404;11.738;2023-06-22T03:41:43;96348.78;;;22.39;69.46
31357;BME280;60001;48.404;11.738;2023-06-22T03:43:14;96351.59;;;22.43;69.64
31357;BME280;60001;48.404;11.738;2023-06-22T03:44:46;96359.56;;;22.39;70.01
31357;BME280;60001;48.404;11.738;2023-06-22T03:46:18;96349.09;;;22.38;69.69
31357;BME280;60001;48.404;11.738;2023-06-22T03:47:50;96358.44;;;22.40;70.11
31357;BME280;60001;48.404;11.738;2023-06-22T03:49:23;96352.84;;;22.46;69.57
31357;BME280;60001;48.404;11.738;2023-06-22T03:50:54;96357.66;;;22.40;69.94
31357;BME280;60001;48.404;11.738;2023-06-22T03:52:26;96351.38;;;22.27;70.35
31357;BME280;60001;48.404;11.738;2023-06-22T03:53:57;96361.63;;;22.34;69.96
31357;BME280;60001;48.404;11.738;2023-06-22T03:55:29;96365.16;;;22.26;70.62
31357;BME280;60001;48.404;11.738;2023-06-22T03:57:01;96363.06;;;22.31;70.48
31357;BME280;60001;48.404;11.738;2023-06-22T03:58:33;96358.00;;;22.30;70.53
31357;BME280;60001;48.404;11.738;2023-06-22T04:00:08;96338.44;;;22.21;70.67
31357;BME280;60001;48.404;11.738;2023-06-22T04:01:41;96370.22;;;22.27;70.48
31357;BME280;60001;48.404;11.738;2023-06-22T04:03:11;96365.91;;;22.35;70.60
31357;BME280;60001;48.404;11.738;2023-06-22T04:04:44;96366.88;;;22.30;70.68
31357;BME280;60001;48.404;11.738;2023-06-22T04:06:16;96371.72;;;22.37;70.38
31357;BME280;60001;48.404;11.738;2023-06-22T04:07:48;96369.84;;;22.37;70.13
31357;BME280;60001;48.404;11.738;2023-06-22T04:09:20;96375.81;;;22.43;69.98
31357;BME280;60001;48.404;11.738;2023-06-22T04:10:52;96362.38;;;22.43;70.21
31357;BME280;60001;48.404;11.738;2023-06-22T04:12:24;96359.84;;;22.38;70.14
31357;BME280;60001;48.404;11.738;2023-06-22T04:13:56;96334.31;;;22.23;70.06
31357;BME280;60001;48.404;11.738;2023-06-22T04:15:27;96367.47;;;22.36;70.05
31357;BME280;60001;48.404;11.738;2023-06-22T04:16:59;96358.09;;;22.42;70.05
31357;BME280;60001;48.404;11.738;2023-06-22T04:18:31;96356.38;;;22.37;70.12
31357;BME280;60001;48.404;11.738;2023-06-22T04:20:05;96356.53;;;22.41;70.30
31357;BME280;60001;48.404;11.738;2023-06-22T04:21:38;96350.94;;;22.46;70.07
31357;BME280;60001;48.404;11.738;2023-06-22T04:23:10;96359.63;;;22.52;70.03
31357;BME280;60001;48.404;11.738;2023-06-22T04:24:41;96352.47;;;22.56;69.35
31357;BME280;60001;48.404;11.738;2023-06-22T04:26:14;96356.41;;;22.58;69.43
31357;BME280;60001;48.404;11.738;2023-06-22T04:27:44;96362.44;;;22.55;69.63
31357;BME280;60001;48.404;11.738;2023-06-22T04:29:16;96356.06;;;22.60;69.46
31357;BME280;60001;48.404;11.738;2023-06-22T04:30:48;96363.63;;;22.66;68.47
31357;BME280;60001;48.404;11.738;2023-06-22T04:32:21;96357.34;;;22.62;69.09
31357;BME280;60001;48.404;11.738;2023-06-22T04:33:52;96351.97;;;22.62;69.08
31357;BME280;60001;48.404;11.738;2023-06-22T04:35:26;96352.22;;;22.69;68.96
31357;BME280;60001;48.404;11.738;2023-06-22T04:36:59;96359.38;;;22.65;69.42
31357;BME280;60001;48.404;11.738;2023-06-22T04:38:30;96358.19;;;22.75;68.65
31357;BME280;60001;48.404;11.738;2023-06-22T04:40:04;96354.25;;;22.73;68.48
31357;BME280;60001;48.404;11.738;2023-06-22T04:41:37;96352.03;;;22.75;68.82
31357;BME280;60001;48.404;11.738;2023-06-22T04:43:15;96354.50;;;22.80;68.59
31357;BME280;60001;48.404;11.738;2023-06-22T04:44:47;96351.63;;;22.85;68.58
31357;BME280;60001;48.404;11.738;2023-06-22T04:46:19;96338.84;;;22.82;68.27
31357;BME280;60001;48.404;11.738;2023-06-22T04:47:51;96346.44;;;22.80;68.20
31357;BME280;60001;48.404;11.738;2023-06-22T04:49:23;96354.00;;;22.86;68.41
31357;BME280;60001;48.404;11.738;2023-06-22T04:51:04;96355.28;;;22.89;68.01
31357;BME280;60001;48.404;11.738;2023-06-22T04:52:36;96360.50;;;22.85;68.50
31357;BME280;60001;48.404;11.738;2023-06-22T04:54:09;96365.56;;;22.87;68.48
31357;BME280;60001;48.404;11.738;2023-06-22T04:55:41;96365.72;;;22.90;68.32
31357;BME280;60001;48.404;11.738;2023-06-22T04:57:16;96351.03;;;22.79;68.39
31357;BME280;60001;48.404;11.738;2023-06-22T04:58:47;96375.03;;;22.93;68.67
31357;BME280;60001;48.404;11.738;2023-06-22T05:00:19;96359.00;;;22.96;68.38
31357;BME280;60001;48.404;11.738;2023-06-22T05:01:53;96361.13;;;22.91;68.52
31357;BME280;60001;48.404;11.738;2023-06-22T05:03:26;96358.06;;;22.71;69.06
31357;BME280;60001;48.404;11.738;2023-06-22T05:04:57;96362.53;;;22.67;69.53
31357;BME280;60001;48.404;11.738;2023-06-22T05:06:31;96354.75;;;22.66;69.97
31357;BME280;60001;48.404;11.738;2023-06-22T05:08:03;96361.59;;;22.63;69.84
31357;BME280;60001;48.404;11.738;2023-06-22T05:09:37;96366.00;;;22.68;69.73
31357;BME280;60001;48.404;11.738;2023-06-22T05:11:09;96364.22;;;22.72;69.66
31357;BME280;60001;48.404;11.738;2023-06-22T05:12:41;96362.59;;;22.80;69.71
31357;BME280;60001;48.404;11.738;2023-06-22T05:14:13;96352.41;;;22.85;69.62
31357;BME280;60001;48.404;11.738;2023-06-22T05:15:45;96340.06;;;22.84;69.15
31357;BME280;60001;48.404;11.738;2023-06-22T05:17:18;96345.19;;;22.77;69.62
31357;BME280;60001;48.404;11.738;2023-06-22T05:18:54;96349.22;;;22.92;69.59
31357;BME280;60001;48.404;11.738;2023-06-22T05:20:26;96348.78;;;22.90;69.38
31357;BME280;60001;48.404;11.738;2023-06-22T05:21:59;96352.06;;;22.95;68.99
31357;BME280;60001;48.404;11.738;2023-06-22T05:23:30;96352.97;;;23.00;69.20
31357;BME280;60001;48.404;11.738;2023-06-22T05:25:02;96346.00;;;22.98;68.92
31357;BME280;60001;48.404;11.738;2023-06-22T05:26:34;96352.06;;;22.95;68.35
31357;BME280;60001;48.404;11.738;2023-06-22T05:28:06;96358.22;;;22.96;68.64
31357;BME280;60001;48.404;11.738;2023-06-22T05:29:41;96357.81;;;23.06;68.16
31357;BME280;60001;48.404;11.738;2023-06-22T05:31:14;96355.13;;;23.06;68.66
31357;BME280;60001;48.404;11.738;2023-06-22T05:32:46;96351.53;;;23.02;67.89
31357;BME280;60001;48.404;11.738;2023-06-22T05:34:18;96358.88;;;22.93;68.58
31357;BME280;60001;48.404;11.738;2023-06-22T05:35:50;96358.59;;;23.07;67.93
31357;BME280;60001;48.404;11.738;2023-06-22T05:37:23;96358.44;;;23.24;68.27
31357;BME280;60001;48.404;11.738;2023-06-22T05:38:56;96354.09;;;23.32;67.89
31357;BME280;60001;48.404;11.738;2023-06-22T05:40:28;96347.25;;;23.34;67.29
31357;BME280;60001;48.404;11.738;2023-06-22T05:42:00;96350.63;;;23.43;67.38
31357;BME280;60001;48.404;11.738;2023-06-22T05:43:32;96350.09;;;23.38;66.90
31357;BME280;60001;48.404;11.738;2023-06-22T05:45:05;96354.44;;;23.30;67.07
31357;BME280;60001;48.404;11.738;2023-06-22T05:46:40;96359.03;;;23.30;66.71
31357;BME280;60001;48.404;11.738;2023-06-22T05:48:14;96360.72;;;23.34;67.23
31357;BME280;60001;48.404;11.738;2023-06-22T05:49:46;96353.22;;;23.40;66.79
31357;BME280;60001;48.404;11.738;2023-06-22T05:51:18;96353.47;;;23.47;66.83
31357;BME280;60001;48.404;11.738;2023-06-22T05:52:51;96344.31;;;23.27;66.12
31357;BME280;60001;48.404;11.738;2023-06-22T05:54:23;96350.38;;;23.36;66.56
31357;BME280;60001;48.404;11.738;2023-06-22T05:55:54;96335.94;;;23.41;66.83
31357;BME280;60001;48.404;11.738;2023-06-22T05:57:26;96327.16;;;23.32;65.96
31357;BME280;60001;48.404;11.738;2023-06-22T05:58:58;96344.59;;;23.46;66.04
31357;BME280;60001;48.404;11.738;2023-06-22T06:00:30;96338.53;;;23.49;66.26
31357;BME280;60001;48.404;11.738;2023-06-22T06:02:02;96340.69;;;23.56;65.09
31357;BME280;60001;48.404;11.738;2023-06-22T06:03:33;96335.28;;;23.56;65.83
31357;BME280;60001;48.404;11.738;2023-06-22T06:05:11;96328.88;;;23.48;65.98
31357;BME280;60001;48.404;11.738;2023-06-22T06:06:44;96337.88;;;23.52;65.89
31357;BME280;60001;48.404;11.738;2023-06-22T06:08:18;96341.28;;;23.62;65.73
31357;BME280;60001;48.404;11.738;2023-06-22T06:09:50;96342.06;;;23.62;65.46
31357;BME280;60001;48.404;11.738;2023-06-22T06:11:22;96336.69;;;23.62;65.47
31357;BME280;60001;48.404;11.738;2023-06-22T06:12:54;96337.38;;;23.71;64.86
31357;BME280;60001;48.404;11.738;2023-06-22T06:14:26;96341.97;;;23.71;64.23
31357;BME280;60001;48.404;11.738;2023-06-22T06:15:57;96326.03;;;23.78;64.77
31357;BME280;60001;48.404;11.738;2023-06-22T06:17:30;96322.53;;;23.77;64.80
31357;BME280;60001;48.404;11.738;2023-06-22T06:19:01;96317.84;;;23.74;64.03
31357;BME280;60001;48.404;11.738;2023-06-22T06:20:33;96319.63;;;23.83;64.03
31357;BME280;60001;48.404;11.738;2023-06-22T06:22:06;96328.63;;;23.87;64.57
31357;BME280;60001;48.404;11.738;2023-06-22T06:23:39;96322.44;;;23.98;64.22
31357;BME280;60001;48.404;11.738;2023-06-22T06:25:11;96325.34;;;24.05;64.57
31357;BME280;60001;48.404;11.738;2023-06-22T06:26:46;96326.13;;;24.06;63.37
31357;BME280;60001;48.404;11.738;2023-06-22T06:28:18;96340.75;;;24.17;63.25
31357;BME280;60001;48.404;11.738;2023-06-22T06:29:50;96348.41;;;24.27;63.05
31357;BME280;60001;48.404;11.738;2023-06-22T06:31:22;96343.28;;;24.35;63.08
31357;BME280;60001;48.404;11.738;2023-06-22T06:32:53;96345.50;;;24.45;62.37
31357;BME280;60001;48.404;11.738;2023-06-22T06:34:26;96333.34;;;24.51;62.18
31357;BME280;60001;48.404;11.738;2023-06-22T06:35:57;96335.81;;;24.56;61.42
31357;BME280;60001;48.404;11.738;2023-06-22T06:37:33;96340.06;;;24.57;60.59
31357;BME280;60001;48.404;11.738;2023-06-22T06:39:07;96330.16;;;24.61;60.99
31357;BME280;60001;48.404;11.738;2023-06-22T06:40:39;96328.47;;;24.69;61.32
31357;BME280;60001;48.404;11.738;2023-06-22T06:42:11;96327.09;;;24.75;61.08
31357;BME280;60001;48.404;11.738;2023-06-22T06:43:43;96317.06;;;24.75;60.18
31357;BME280;60001;48.404;11.738;2023-06-22T06:45:16;96321.22;;;24.85;58.95
31357;BME280;60001;48.404;11.738;2023-06-22T06:46:48;96314.44;;;24.91;59.34
31357;BME280;60001;48.404;11.738;2023-06-22T06:48:20;96314.63;;;25.10;59.39
31357;BME280;60001;48.404;11.738;2023-06-22T06:49:52;96318.78;;;25.08;58.92
31357;BME280;60001;48.404;11.738;2023-06-22T06:51:24;96309.50;;;25.21;59.11
31357;BME280;60001;48.404;11.738;2023-06-22T06:52:55;96306.97;;;25.28;58.99
31357;BME280;60001;48.404;11.738;2023-06-22T06:54:30;96306.19;;;25.28;58.78
31357;BME280;60001;48.404;11.738;2023-06-22T06:56:02;96299.66;;;25.29;58.24
31357;BME280;60001;48.404;11.738;2023-06-22T06:57:35;96297.91;;;25.21;57.58
31357;BME280;60001;48.404;11.738;2023-06-22T06:59:07;96304.03;;;25.33;58.25
31357;BME280;60001;48.404;11.738;2023-06-22T07:00:39;96296.88;;;25.41;57.33
31357;BME280;60001;48.404;11.738;2023-06-22T07:02:11;96295.16;;;25.49;57.12
31357;BME280;60001;48.404;11.738;2023-06-22T07:03:43;96310.41;;;25.57;56.90
31357;BME280;60001;48.404;11.738;2023-06-22T07:05:14;96300.91;;;25.63;57.08
31357;BME280;60001;48.404;11.738;2023-06-22T07:06:46;96304.03;;;25.65;55.75
31357;BME280;60001;48.404;11.738;2023-06-22T07:08:18;96306.75;;;25.65;55.31
31357;BME280;60001;48.404;11.738;2023-06-22T07:09:51;96315.75;;;25.69;55.44
31357;BME280;60001;48.404;11.738;2023-06-22T07:11:23;96316.03;;;25.80;55.99
31357;BME280;60001;48.404;11.738;2023-06-22T07:12:55;96315.88;;;25.88;55.34
31357;BME280;60001;48.404;11.738;2023-06-22T07:14:27;96316.47;;;25.82;54.65
31357;BME280;60001;48.404;11.738;2023-06-22T07:15:59;96314.38;;;25.91;54.31
31357;BME280;60001;48.404;11.738;2023-06-22T07:17:30;96318.56;;;25.88;53.74
31357;BME280;60001;48.404;11.738;2023-06-22T07:19:02;96311.94;;;26.02;53.91
31357;BME280;60001;48.404;11.738;2023-06-22T07:20:34;96315.22;;;26.11;53.78
31357;BME280;60001;48.404;11.738;2023-06-22T07:22:06;96307.16;;;26.30;54.14
31357;BME280;60001;48.404;11.738;2023-06-22T07:23:37;96311.00;;;26.45;53.61
31357;BME280;60001;48.404;11.738;2023-06-22T07:25:11;96311.22;;;26.56;53.26
31357;BME280;60001;48.404;11.738;2023-06-22T07:26:44;96304.03;;;26.63;53.08
31357;BME280;60001;48.404;11.738;2023-06-22T07:28:16;96312.16;;;26.83;53.20
31357;BME280;60001;48.404;11.738;2023-06-22T07:29:48;96312.03;;;26.95;52.16
31357;BME280;60001;48.404;11.738;2023-06-22T07:31:20;96306.38;;;27.03;50.78
31357;BME280;60001;48.404;11.738;2023-06-22T07:32:51;96311.19;;;27.10;50.24
31357;BME280;60001;48.404;11.738;2023-06-22T07:34:23;96306.00;;;27.21;50.03
31357;BME280;60001;48.404;11.738;2023-06-22T07:35:55;96304.47;;;27.23;49.45
31357;BME280;60001;48.404;11.738;2023-06-22T07:37:27;96305.03;;;27.32;49.29
31357;BME280;60001;48.404;11.738;2023-06-22T07:38:59;96302.88;;;27.42;48.60
31357;BME280;60001;48.404;11.738;2023-06-22T07:40:32;96295.66;;;27.49;49.07
31357;BME280;60001;48.404;11.738;2023-06-22T07:42:04;96296.19;;;27.58;48.06
31357;BME280;60001;48.404;11.738;2023-06-22T07:43:36;96295.53;;;27.65;48.29
31357;BME280;60001;48.404;11.738;2023-06-22T07:45:08;96292.97;;;27.72;48.33
31357;BME280;60001;48.404;11.738;2023-06-22T07:46:40;96288.53;;;27.87;48.00
31357;BME280;60001;48.404;11.738;2023-06-22T07:48:12;96294.56;;;28.00;47.35
31357;BME280;60001;48.404;11.738;2023-06-22T07:49:43;96292.72;;;28.07;46.67
31357;BME280;60001;48.404;11.738;2023-06-22T07:51:15;96290.19;;;28.18;46.10
31357;BME280;60001;48.404;11.738;2023-06-22T07:52:47;96279.53;;;28.06;45.08
31357;BME280;60001;48.404;11.738;2023-06-22T07:54:19;96275.38;;;28.12;45.48
31357;BME280;60001;48.404;11.738;2023-06-22T07:55:52;96284.22;;;28.09;44.90
31357;BME280;60001;48.404;11.738;2023-06-22T07:57:24;96282.53;;;28.24;44.92
31357;BME280;60001;48.404;11.738;2023-06-22T07:59:02;96283.16;;;28.40;44.97
31357;BME280;60001;48.404;11.738;2023-06-22T08:00:34;96292.13;;;28.44;44.87
31357;BME280;60001;48.404;11.738;2023-06-22T08:02:06;96285.66;;;28.52;45.12
31357;BME280;60001;48.404;11.738;2023-06-22T08:03:39;96286.34;;;28.46;44.59
31357;BME280;60001;48.404;11.738;2023-06-22T08:05:11;96281.50;;;28.62;44.05
31357;BME280;60001;48.404;11.738;2023-06-22T08:06:43;96282.75;;;28.38;44.11